createdAt,value
2017-11-10T00:00:26.998Z,1014.15
2017-11-10T00:01:27.432Z,1014.12
2017-11-10T00:02:27.847Z,1014.12
2017-11-10T00:03:28.273Z,1014.13
2017-11-10T00:04:28.697Z,1014.09
2017-11-10T00:05:29.123Z,1014.13
2017-11-10T00:06:29.556Z,1014.12
2017-11-10T00:07:29.983Z,1014.14
2017-11-10T00:08:30.396Z,1014.09
2017-11-10T00:09:30.827Z,1014.08
2017-11-10T00:10:31.252Z,1014.06
2017-11-10T00:11:31.675Z,1014.08
2017-11-10T00:12:32.102Z,1014.09
2017-11-10T00:13:32.531Z,1014.05
2017-11-10T00:14:32.955Z,1014.09
2017-11-10T00:15:33.374Z,1014.13
2017-11-10T00:16:33.801Z,1014.05
2017-11-10T00:17:34.234Z,1014.11
2017-11-10T00:18:34.680Z,1014.06
2017-11-10T00:19:35.080Z,1014.07
2017-11-10T00:20:35.500Z,1014.15
2017-11-10T00:21:35.943Z,1014.10
2017-11-10T00:22:36.352Z,1014.12
2017-11-10T00:23:36.776Z,1014.09
2017-11-10T00:24:37.217Z,1014.03
2017-11-10T00:25:37.632Z,1013.99
2017-11-10T00:26:38.064Z,1014.02
2017-11-10T00:27:38.497Z,1014.01
2017-11-10T00:28:38.901Z,1014.06
2017-11-10T00:29:39.326Z,1014.03
2017-11-10T00:30:39.758Z,1014.00
2017-11-10T00:31:40.187Z,1014.04
2017-11-10T00:32:40.607Z,1014.04
2017-11-10T00:33:41.028Z,1014.07
2017-11-10T00:34:41.456Z,1014.08
2017-11-10T00:35:41.885Z,1014.08
2017-11-10T00:36:42.302Z,1014.08
2017-11-10T00:37:42.729Z,1014.11
2017-11-10T00:38:43.153Z,1014.06
2017-11-10T00:39:43.579Z,1014.05
2017-11-10T00:40:44.003Z,1014.03
2017-11-10T00:41:44.431Z,1013.99
2017-11-10T00:42:44.858Z,1014.05
2017-11-10T00:43:45.278Z,1014.05
2017-11-10T00:44:45.706Z,1014.07
2017-11-10T00:45:46.137Z,1014.08
2017-11-10T00:46:46.553Z,1014.13
2017-11-10T00:47:46.982Z,1014.12
2017-11-10T00:48:47.402Z,1014.10
2017-11-10T00:49:47.827Z,1014.09
2017-11-10T00:50:48.262Z,1014.09
2017-11-10T00:51:48.679Z,1014.11
2017-11-10T00:52:49.104Z,1014.08
2017-11-10T00:53:49.533Z,1014.07
2017-11-10T00:54:49.962Z,1014.05
2017-11-10T00:55:50.379Z,1014.03
2017-11-10T00:56:50.801Z,1014.07
2017-11-10T00:57:51.232Z,1014.02
2017-11-10T00:58:51.659Z,1014.00
2017-11-10T00:59:52.081Z,1013.99
2017-11-10T01:00:52.505Z,1013.98
2017-11-10T01:01:52.934Z,1014.01
2017-11-10T01:02:53.353Z,1013.91
2017-11-10T01:03:53.777Z,1013.94
2017-11-10T01:04:54.204Z,1013.99
2017-11-10T01:05:54.630Z,1013.89
2017-11-10T01:06:55.054Z,1013.93
2017-11-10T01:07:55.483Z,1013.90
2017-11-10T01:08:55.903Z,1013.91
2017-11-10T01:09:56.330Z,1013.86
2017-11-10T01:10:56.762Z,1013.84
2017-11-10T01:11:57.184Z,1013.78
2017-11-10T01:12:57.606Z,1013.87
2017-11-10T01:13:58.038Z,1013.87
2017-11-10T01:14:58.454Z,1013.85
2017-11-10T01:15:58.880Z,1013.85
2017-11-10T01:16:59.305Z,1013.84
2017-11-10T01:17:59.732Z,1013.82
2017-11-10T01:19:00.156Z,1013.80
2017-11-10T01:20:00.581Z,1013.81
2017-11-10T01:21:01.009Z,1013.80
2017-11-10T01:22:01.431Z,1013.80
2017-11-10T01:23:01.855Z,1013.76
2017-11-10T01:24:02.288Z,1013.75
2017-11-10T01:25:02.708Z,1013.76
2017-11-10T01:26:03.135Z,1013.75
2017-11-10T01:27:03.553Z,1013.74
2017-11-10T01:28:03.979Z,1013.72
2017-11-10T01:29:04.403Z,1013.68
2017-11-10T01:30:04.838Z,1013.67
2017-11-10T01:31:05.254Z,1013.65
2017-11-10T01:32:05.679Z,1013.66
2017-11-10T01:33:06.106Z,1013.64
2017-11-10T01:34:06.534Z,1013.65
2017-11-10T01:35:06.954Z,1013.68
2017-11-10T01:36:07.382Z,1013.67
2017-11-10T01:37:07.804Z,1013.72
2017-11-10T01:38:08.232Z,1013.67
2017-11-10T01:39:08.661Z,1013.70
2017-11-10T01:40:09.085Z,1013.68
2017-11-10T01:41:09.503Z,1013.66
2017-11-10T01:42:09.931Z,1013.59
2017-11-10T01:43:10.348Z,1013.54
2017-11-10T01:44:10.779Z,1013.53
2017-11-10T01:45:11.220Z,1013.51
2017-11-10T01:46:11.622Z,1013.50
2017-11-10T01:47:12.053Z,1013.53
2017-11-10T01:48:12.474Z,1013.50
2017-11-10T01:49:12.903Z,1013.51
2017-11-10T01:50:13.329Z,1013.48
2017-11-10T01:51:13.752Z,1013.46
2017-11-10T01:52:14.175Z,1013.44
2017-11-10T01:53:14.602Z,1013.43
2017-11-10T01:54:15.021Z,1013.43
2017-11-10T01:55:15.453Z,1013.44
2017-11-10T01:56:15.880Z,1013.41
2017-11-10T01:57:16.296Z,1013.40
2017-11-10T01:58:16.724Z,1013.38
2017-11-10T01:59:17.148Z,1013.36
2017-11-10T02:00:17.571Z,1013.30
2017-11-10T02:01:17.992Z,1013.26
2017-11-10T02:02:18.425Z,1013.21
2017-11-10T02:03:18.840Z,1013.19
2017-11-10T02:04:19.267Z,1013.19
2017-11-10T02:05:19.692Z,1013.14
2017-11-10T02:06:20.128Z,1013.17
2017-11-10T02:07:20.544Z,1013.10
2017-11-10T02:08:20.963Z,1013.08
2017-11-10T02:09:21.386Z,1013.12
2017-11-10T02:10:21.812Z,1013.09
2017-11-10T02:11:22.244Z,1013.05
2017-11-10T02:12:22.662Z,1013.09
2017-11-10T02:13:23.084Z,1013.04
2017-11-10T02:14:23.515Z,1013.03
2017-11-10T02:15:23.946Z,1013.04
2017-11-10T02:16:24.365Z,1012.98
2017-11-10T02:17:24.781Z,1012.97
2017-11-10T02:18:25.205Z,1012.96
2017-11-10T02:19:25.638Z,1012.97
2017-11-10T02:20:26.056Z,1012.99
2017-11-10T02:21:26.483Z,1012.99
2017-11-10T02:22:26.905Z,1012.98
2017-11-10T02:23:27.326Z,1012.97
2017-11-10T02:24:27.759Z,1012.94
2017-11-10T02:25:28.176Z,1012.94
2017-11-10T02:26:28.604Z,1012.90
2017-11-10T02:27:29.026Z,1012.85
2017-11-10T02:28:29.451Z,1012.83
2017-11-10T02:29:29.879Z,1012.80
2017-11-10T02:30:30.295Z,1012.76
2017-11-10T02:31:30.725Z,1012.73
2017-11-10T02:32:31.145Z,1012.71
2017-11-10T02:33:31.573Z,1012.71
2017-11-10T02:34:31.994Z,1012.70
2017-11-10T02:35:32.421Z,1012.71
2017-11-10T02:36:32.845Z,1012.71
2017-11-10T02:37:33.269Z,1012.71
2017-11-10T02:38:33.692Z,1012.71
2017-11-10T02:39:34.119Z,1012.76
2017-11-10T02:40:34.548Z,1012.76
2017-11-10T02:41:34.966Z,1012.71
2017-11-10T02:42:35.395Z,1012.75
2017-11-10T02:43:35.818Z,1012.73
2017-11-10T02:44:36.235Z,1012.69
2017-11-10T02:45:36.658Z,1012.69
2017-11-10T02:46:37.084Z,1012.66
2017-11-10T02:47:37.511Z,1012.66
2017-11-10T02:48:37.934Z,1012.64
2017-11-10T02:49:38.361Z,1012.67
2017-11-10T02:50:38.784Z,1012.63
2017-11-10T02:51:39.206Z,1012.66
2017-11-10T02:52:39.638Z,1012.68
2017-11-10T02:53:40.061Z,1012.67
2017-11-10T02:54:40.480Z,1012.59
2017-11-10T02:55:40.930Z,1012.59
2017-11-10T02:56:41.330Z,1012.56
2017-11-10T02:57:41.753Z,1012.52
2017-11-10T02:58:42.187Z,1012.46
2017-11-10T02:59:42.603Z,1012.45
2017-11-10T03:00:43.042Z,1012.40
2017-11-10T03:01:43.453Z,1012.47
2017-11-10T03:02:43.883Z,1012.43
2017-11-10T03:03:44.298Z,1012.46
2017-11-10T03:04:44.721Z,1012.41
2017-11-10T03:05:45.145Z,1012.44
2017-11-10T03:06:45.571Z,1012.41
2017-11-10T03:07:46.002Z,1012.45
2017-11-10T03:08:46.418Z,1012.42
2017-11-10T03:09:46.850Z,1012.39
2017-11-10T03:10:47.268Z,1012.35
2017-11-10T03:11:47.697Z,1012.31
2017-11-10T03:12:48.125Z,1012.25
2017-11-10T03:13:48.583Z,1012.25
2017-11-10T03:14:48.963Z,1012.22
2017-11-10T03:15:49.397Z,1012.22
2017-11-10T03:16:49.814Z,1012.16
2017-11-10T03:17:50.236Z,1012.13
2017-11-10T03:18:50.661Z,1012.10
2017-11-10T03:19:51.088Z,1012.07
2017-11-10T03:20:51.510Z,1012.08
2017-11-10T03:21:51.934Z,1012.04
2017-11-10T03:22:52.358Z,1012.02
2017-11-10T03:23:52.797Z,1012.05
2017-11-10T03:24:53.211Z,1011.99
2017-11-10T03:25:53.632Z,1012.03
2017-11-10T03:26:54.057Z,1012.01
2017-11-10T03:27:54.484Z,1011.98
2017-11-10T03:28:54.907Z,1011.98
2017-11-10T03:29:55.329Z,1011.98
2017-11-10T03:30:55.761Z,1011.91
2017-11-10T03:31:56.189Z,1011.91
2017-11-10T03:32:56.609Z,1011.96
2017-11-10T03:33:57.031Z,1011.96
2017-11-10T03:34:57.454Z,1011.96
2017-11-10T03:35:57.877Z,1011.98
2017-11-10T03:36:58.300Z,1012.00
2017-11-10T03:37:58.723Z,1011.98
2017-11-10T03:38:59.153Z,1011.99
2017-11-10T03:39:59.576Z,1012.01
2017-11-10T03:40:59.999Z,1011.99
2017-11-10T03:42:00.425Z,1011.97
2017-11-10T03:43:00.846Z,1011.95
2017-11-10T03:44:01.270Z,1011.96
2017-11-10T03:45:01.698Z,1011.96
2017-11-10T03:46:02.118Z,1011.92
2017-11-10T03:47:02.544Z,1011.88
2017-11-10T03:48:02.967Z,1011.92
2017-11-10T03:49:03.392Z,1011.93
2017-11-10T03:50:03.816Z,1011.86
2017-11-10T03:51:04.247Z,1011.85
2017-11-10T03:52:04.678Z,1011.86
2017-11-10T03:53:05.086Z,1011.90
2017-11-10T03:54:05.524Z,1011.90
2017-11-10T03:55:05.941Z,1011.89
2017-11-10T03:56:06.363Z,1011.85
2017-11-10T03:57:06.787Z,1011.85
2017-11-10T03:58:07.212Z,1011.84
2017-11-10T03:59:07.642Z,1011.81
2017-11-10T04:00:08.060Z,1011.81
2017-11-10T04:01:08.483Z,1011.82
2017-11-10T04:02:08.910Z,1011.73
2017-11-10T04:03:09.338Z,1011.82
2017-11-10T04:04:09.763Z,1011.80
2017-11-10T04:05:10.180Z,1011.77
2017-11-10T04:06:10.615Z,1011.72
2017-11-10T04:07:11.029Z,1011.78
2017-11-10T04:08:11.458Z,1011.75
2017-11-10T04:09:11.878Z,1011.75
2017-11-10T04:10:12.307Z,1011.83
2017-11-10T04:11:12.728Z,1011.80
2017-11-10T04:12:13.156Z,1011.81
2017-11-10T04:13:13.576Z,1011.77
2017-11-10T04:14:14.001Z,1011.76
2017-11-10T04:15:14.429Z,1011.80
2017-11-10T04:16:14.869Z,1011.79
2017-11-10T04:17:15.274Z,1011.78
2017-11-10T04:18:15.698Z,1011.75
2017-11-10T04:19:16.128Z,1011.72
2017-11-10T04:20:16.549Z,1011.75
2017-11-10T04:21:16.979Z,1011.75
2017-11-10T04:22:17.397Z,1011.70
2017-11-10T04:23:17.823Z,1011.76
2017-11-10T04:24:18.247Z,1011.75
2017-11-10T04:25:18.671Z,1011.73
2017-11-10T04:26:19.116Z,1011.74
2017-11-10T04:27:19.521Z,1011.72
2017-11-10T04:28:19.940Z,1011.73
2017-11-10T04:29:20.370Z,1011.73
2017-11-10T04:30:20.791Z,1011.73
2017-11-10T04:31:21.214Z,1011.67
2017-11-10T04:32:21.644Z,1011.66
2017-11-10T04:33:22.064Z,1011.68
2017-11-10T04:34:22.492Z,1011.68
2017-11-10T04:35:22.915Z,1011.63
2017-11-10T04:36:23.346Z,1011.58
2017-11-10T04:37:23.762Z,1011.55
2017-11-10T04:38:24.188Z,1011.55
2017-11-10T04:39:24.608Z,1011.51
2017-11-10T04:40:25.049Z,1011.50
2017-11-10T04:41:25.464Z,1011.45
2017-11-10T04:42:25.887Z,1011.42
2017-11-10T04:43:26.315Z,1011.43
2017-11-10T04:44:26.739Z,1011.43
2017-11-10T04:45:27.160Z,1011.47
2017-11-10T04:46:27.583Z,1011.46
2017-11-10T04:47:28.009Z,1011.50
2017-11-10T04:48:28.432Z,1011.53
2017-11-10T04:49:28.863Z,1011.59
2017-11-10T04:50:29.278Z,1011.63
2017-11-10T04:51:29.706Z,1011.66
2017-11-10T04:52:30.136Z,1011.70
2017-11-10T04:53:30.559Z,1011.66
2017-11-10T04:54:30.983Z,1011.65
2017-11-10T04:55:31.402Z,1011.60
2017-11-10T04:56:31.829Z,1011.60
2017-11-10T04:57:32.253Z,1011.56
2017-11-10T04:58:32.680Z,1011.58
2017-11-10T04:59:33.114Z,1011.56
2017-11-10T05:00:33.534Z,1011.56
2017-11-10T05:01:33.950Z,1011.53
2017-11-10T05:02:34.372Z,1011.52
2017-11-10T05:03:34.806Z,1011.55
2017-11-10T05:04:35.233Z,1011.56
2017-11-10T05:05:35.652Z,1011.62
2017-11-10T05:06:36.076Z,1011.55
2017-11-10T05:07:36.501Z,1011.60
2017-11-10T05:08:36.917Z,1011.59
2017-11-10T05:09:37.349Z,1011.62
2017-11-10T05:10:37.769Z,1011.54
2017-11-10T05:11:38.192Z,1011.53
2017-11-10T05:12:38.622Z,1011.57
2017-11-10T05:13:39.044Z,1011.53
2017-11-10T05:14:39.468Z,1011.53
2017-11-10T05:15:39.892Z,1011.52
2017-11-10T05:16:40.315Z,1011.43
2017-11-10T05:17:40.745Z,1011.40
2017-11-10T05:18:41.164Z,1011.44
2017-11-10T05:19:41.589Z,1011.46
2017-11-10T05:20:42.016Z,1011.44
2017-11-10T05:21:42.440Z,1011.40
2017-11-10T05:22:42.864Z,1011.40
2017-11-10T05:23:43.291Z,1011.42
2017-11-10T05:24:43.715Z,1011.41
2017-11-10T05:25:44.137Z,1011.41
2017-11-10T05:26:44.562Z,1011.38
2017-11-10T05:27:44.986Z,1011.36
2017-11-10T05:28:45.423Z,1011.36
2017-11-10T05:29:45.839Z,1011.37
2017-11-10T05:30:46.261Z,1011.36
2017-11-10T05:31:46.682Z,1011.37
2017-11-10T05:32:47.106Z,1011.35
2017-11-10T05:33:47.529Z,1011.40
2017-11-10T05:34:47.964Z,1011.36
2017-11-10T05:35:48.381Z,1011.36
2017-11-10T05:36:48.808Z,1011.37
2017-11-10T05:37:49.233Z,1011.35
2017-11-10T05:38:49.657Z,1011.30
2017-11-10T05:39:50.076Z,1011.31
2017-11-10T05:40:50.502Z,1011.34
2017-11-10T05:41:50.929Z,1011.36
2017-11-10T05:42:51.353Z,1011.35
2017-11-10T05:43:51.775Z,1011.36
2017-11-10T05:44:52.200Z,1011.37
2017-11-10T05:45:52.623Z,1011.41
2017-11-10T05:46:53.050Z,1011.33
2017-11-10T05:47:53.475Z,1011.36
2017-11-10T05:48:53.897Z,1011.35
2017-11-10T05:49:54.319Z,1011.34
2017-11-10T05:50:54.751Z,1011.32
2017-11-10T05:51:55.168Z,1011.40
2017-11-10T05:52:55.593Z,1011.29
2017-11-10T05:53:56.018Z,1011.38
2017-11-10T05:54:56.450Z,1011.34
2017-11-10T05:55:56.880Z,1011.33
2017-11-10T05:56:57.289Z,1011.33
2017-11-10T05:57:57.714Z,1011.32
2017-11-10T05:58:58.137Z,1011.33
2017-11-10T05:59:58.570Z,1011.36
2017-11-10T06:00:58.987Z,1011.30
2017-11-10T06:01:59.409Z,1011.35
2017-11-10T06:03:00.733Z,1011.31
2017-11-10T06:04:00.251Z,1011.31
2017-11-10T06:05:00.685Z,1011.32
2017-11-10T06:06:01.107Z,1011.30
2017-11-10T06:07:01.536Z,1011.28
2017-11-10T06:08:02.009Z,1011.27
2017-11-10T06:09:02.384Z,1011.20
2017-11-10T06:10:02.805Z,1011.24
2017-11-10T06:11:03.231Z,1011.23
2017-11-10T06:12:03.657Z,1011.21
2017-11-10T06:13:04.085Z,1011.26
2017-11-10T06:14:04.503Z,1011.21
2017-11-10T06:15:04.927Z,1011.18
2017-11-10T06:16:05.378Z,1011.19
2017-11-10T06:17:05.777Z,1011.17
2017-11-10T06:18:06.198Z,1011.19
2017-11-10T06:19:06.627Z,1011.22
2017-11-10T06:20:07.049Z,1011.24
2017-11-10T06:21:07.478Z,1011.21
2017-11-10T06:22:07.899Z,1011.17
2017-11-10T06:23:08.322Z,1011.15
2017-11-10T06:24:08.750Z,1011.17
2017-11-10T06:25:09.181Z,1011.15
2017-11-10T06:26:09.597Z,1011.12
2017-11-10T06:27:10.018Z,1011.10
2017-11-10T06:28:10.460Z,1011.08
2017-11-10T06:29:10.874Z,1011.09
2017-11-10T06:30:11.295Z,1011.11
2017-11-10T06:31:11.720Z,1011.04
2017-11-10T06:32:12.147Z,1011.07
2017-11-10T06:33:12.576Z,1011.06
2017-11-10T06:34:12.999Z,1011.02
2017-11-10T06:35:13.422Z,1011.05
2017-11-10T06:36:13.842Z,1011.06
2017-11-10T06:37:14.268Z,1011.04
2017-11-10T06:38:14.693Z,1010.91
2017-11-10T06:39:15.115Z,1010.96
2017-11-10T06:40:15.540Z,1010.95
2017-11-10T06:41:15.973Z,1010.95
2017-11-10T06:42:16.388Z,1010.94
2017-11-10T06:43:16.815Z,1010.94
2017-11-10T06:44:17.240Z,1010.93
2017-11-10T06:45:17.663Z,1010.94
2017-11-10T06:46:18.098Z,1010.95
2017-11-10T06:47:18.513Z,1010.95
2017-11-10T06:48:18.938Z,1010.93
2017-11-10T06:49:19.362Z,1010.96
2017-11-10T06:50:19.790Z,1010.97
2017-11-10T06:51:20.215Z,1010.83
2017-11-10T06:52:20.639Z,1010.78
2017-11-10T06:53:21.129Z,1010.88
2017-11-10T06:54:21.494Z,1010.80
2017-11-10T06:55:21.914Z,1010.86
2017-11-10T06:56:22.345Z,1010.91
2017-11-10T06:57:22.766Z,1010.92
2017-11-10T06:58:23.187Z,1010.92
2017-11-10T06:59:23.616Z,1010.83
2017-11-10T07:00:24.040Z,1010.85
2017-11-10T07:01:24.461Z,1010.84
2017-11-10T07:02:24.888Z,1010.88
2017-11-10T07:03:25.314Z,1010.85
2017-11-10T07:04:25.740Z,1010.82
2017-11-10T07:05:26.164Z,1010.78
2017-11-10T07:06:26.587Z,1010.77
2017-11-10T07:07:27.013Z,1010.75
2017-11-10T07:08:27.438Z,1010.74
2017-11-10T07:09:27.864Z,1010.73
2017-11-10T07:10:28.292Z,1010.66
2017-11-10T07:11:28.712Z,1010.64
2017-11-10T07:12:29.136Z,1010.67
2017-11-10T07:13:29.567Z,1010.65
2017-11-10T07:14:30.011Z,1010.62
2017-11-10T07:15:30.413Z,1010.65
2017-11-10T07:16:30.851Z,1010.63
2017-11-10T07:17:31.282Z,1010.63
2017-11-10T07:18:31.696Z,1010.69
2017-11-10T07:19:32.113Z,1010.65
2017-11-10T07:20:32.538Z,1010.63
2017-11-10T07:21:32.964Z,1010.62
2017-11-10T07:22:33.388Z,1010.64
2017-11-10T07:23:33.811Z,1010.66
2017-11-10T07:24:34.239Z,1010.64
2017-11-10T07:25:34.667Z,1010.66
2017-11-10T07:26:35.088Z,1010.64
2017-11-10T07:27:35.516Z,1010.63
2017-11-10T07:28:35.941Z,1010.63
2017-11-10T07:29:36.361Z,1010.66
2017-11-10T07:30:36.791Z,1010.56
2017-11-10T07:31:37.215Z,1010.58
2017-11-10T07:32:37.643Z,1010.58
2017-11-10T07:33:38.069Z,1010.62
2017-11-10T07:34:38.492Z,1010.61
2017-11-10T07:35:38.917Z,1010.63
2017-11-10T07:36:39.345Z,1010.57
2017-11-10T07:37:39.786Z,1010.56
2017-11-10T07:38:40.190Z,1010.57
2017-11-10T07:39:40.628Z,1010.54
2017-11-10T07:40:41.042Z,1010.50
2017-11-10T07:41:41.476Z,1010.55
2017-11-10T07:42:41.890Z,1010.53
2017-11-10T07:43:42.326Z,1010.52
2017-11-10T07:44:42.744Z,1010.47
2017-11-10T07:45:43.170Z,1010.52
2017-11-10T07:46:43.592Z,1010.47
2017-11-10T07:47:44.019Z,1010.49
2017-11-10T07:48:44.444Z,1010.45
2017-11-10T07:49:44.876Z,1010.43
2017-11-10T07:50:45.295Z,1010.48
2017-11-10T07:51:45.719Z,1010.46
2017-11-10T07:52:46.142Z,1010.46
2017-11-10T07:53:46.567Z,1010.44
2017-11-10T07:54:47.003Z,1010.45
2017-11-10T07:55:47.420Z,1010.36
2017-11-10T07:56:47.845Z,1010.41
2017-11-10T07:57:48.270Z,1010.39
2017-11-10T07:58:48.693Z,1010.38
2017-11-10T07:59:49.118Z,1010.36
2017-11-10T08:00:49.549Z,1010.39
2017-11-10T08:01:49.974Z,1010.37
2017-11-10T08:02:50.404Z,1010.36
2017-11-10T08:03:50.818Z,1010.37
2017-11-10T08:04:51.246Z,1010.32
2017-11-10T08:05:51.669Z,1010.32
2017-11-10T08:06:52.091Z,1010.36
2017-11-10T08:07:52.520Z,1010.33
2017-11-10T08:08:52.948Z,1010.27
2017-11-10T08:09:53.370Z,1010.29
2017-11-10T08:10:53.802Z,1010.25
2017-11-10T08:11:54.221Z,1010.16
2017-11-10T08:12:54.647Z,1010.18
2017-11-10T08:13:55.068Z,1010.21
2017-11-10T08:14:55.503Z,1010.14
2017-11-10T08:15:55.924Z,1010.14
2017-11-10T08:16:56.357Z,1010.08
2017-11-10T08:17:56.773Z,1009.99
2017-11-10T08:18:57.198Z,1009.93
2017-11-10T08:19:57.620Z,1009.89
2017-11-10T08:20:58.046Z,1009.86
2017-11-10T08:21:58.470Z,1009.83
2017-11-10T08:22:58.896Z,1009.83
2017-11-10T08:23:59.322Z,1009.82
2017-11-10T08:24:59.749Z,1009.74
2017-11-10T08:26:00.171Z,1009.80
2017-11-10T08:27:00.660Z,1009.74
2017-11-10T08:28:01.020Z,1009.75
2017-11-10T08:29:01.448Z,1009.77
2017-11-10T08:30:01.880Z,1009.77
2017-11-10T08:31:02.295Z,1009.74
2017-11-10T08:32:02.722Z,1009.73
2017-11-10T08:33:03.146Z,1009.70
2017-11-10T08:34:03.570Z,1009.74
2017-11-10T08:35:03.999Z,1009.72
2017-11-10T08:36:04.422Z,1009.64
2017-11-10T08:37:04.850Z,1009.68
2017-11-10T08:38:05.288Z,1009.64
2017-11-10T08:39:05.702Z,1009.58
2017-11-10T08:40:06.129Z,1009.61
2017-11-10T08:41:06.563Z,1009.59
2017-11-10T08:42:06.976Z,1009.58
2017-11-10T08:43:07.399Z,1009.62
2017-11-10T08:44:07.825Z,1009.54
2017-11-10T08:45:08.248Z,1009.51
2017-11-10T08:46:08.688Z,1009.48
2017-11-10T08:47:09.102Z,1009.46
2017-11-10T08:48:09.526Z,1009.39
2017-11-10T08:49:09.960Z,1009.39
2017-11-10T08:50:10.379Z,1009.32
2017-11-10T08:51:10.802Z,1009.33
2017-11-10T08:52:11.230Z,1009.31
2017-11-10T08:53:11.679Z,1009.25
2017-11-10T08:54:12.079Z,1009.25
2017-11-10T08:55:12.504Z,1009.22
2017-11-10T08:56:12.930Z,1009.17
2017-11-10T08:57:13.359Z,1009.15
2017-11-10T08:58:13.784Z,1009.10
2017-11-10T08:59:14.212Z,1009.05
2017-11-10T09:00:14.642Z,1009.03
2017-11-10T09:01:15.057Z,1008.97
2017-11-10T09:02:15.486Z,1008.96
2017-11-10T09:03:15.909Z,1008.97
2017-11-10T09:04:16.336Z,1008.91
2017-11-10T09:05:16.768Z,1008.91
2017-11-10T09:06:17.187Z,1008.86
2017-11-10T09:07:17.610Z,1008.94
2017-11-10T09:08:18.043Z,1008.93
2017-11-10T09:09:18.463Z,1008.88
2017-11-10T09:10:18.888Z,1008.86
2017-11-10T09:11:19.310Z,1008.85
2017-11-10T09:12:19.740Z,1008.86
2017-11-10T09:13:20.165Z,1008.85
2017-11-10T09:14:20.598Z,1008.89
2017-11-10T09:15:21.012Z,1008.85
2017-11-10T09:16:21.460Z,1008.82
2017-11-10T09:17:21.867Z,1008.84
2017-11-10T09:18:22.290Z,1008.79
2017-11-10T09:19:22.723Z,1008.79
2017-11-10T09:20:23.142Z,1008.76
2017-11-10T09:21:23.570Z,1008.76
2017-11-10T09:22:24.000Z,1008.72
2017-11-10T09:23:24.419Z,1008.72
2017-11-10T09:24:24.845Z,1008.72
2017-11-10T09:25:25.273Z,1008.71
2017-11-10T09:26:25.703Z,1008.76
2017-11-10T09:27:26.123Z,1008.74
2017-11-10T09:28:26.547Z,1008.71
2017-11-10T09:29:26.973Z,1008.75
2017-11-10T09:30:27.404Z,1008.76
2017-11-10T09:31:27.825Z,1008.69
2017-11-10T09:32:28.253Z,1008.70
2017-11-10T09:33:28.682Z,1008.72
2017-11-10T09:34:29.110Z,1008.72
2017-11-10T09:35:29.526Z,1008.67
2017-11-10T09:36:29.952Z,1008.68
2017-11-10T09:37:30.380Z,1008.63
2017-11-10T09:38:30.806Z,1008.59
2017-11-10T09:39:31.226Z,1008.54
2017-11-10T09:40:31.658Z,1008.59
2017-11-10T09:41:32.092Z,1008.58
2017-11-10T09:42:32.507Z,1008.61
2017-11-10T09:43:32.945Z,1008.56
2017-11-10T09:44:33.374Z,1008.59
2017-11-10T09:45:33.782Z,1008.63
2017-11-10T09:46:34.212Z,1008.63
2017-11-10T09:47:34.633Z,1008.63
2017-11-10T09:48:35.066Z,1008.61
2017-11-10T09:49:35.490Z,1008.63
2017-11-10T09:50:35.925Z,1008.58
2017-11-10T09:51:36.335Z,1008.61
2017-11-10T09:52:36.766Z,1008.56
2017-11-10T09:53:37.189Z,1008.57
2017-11-10T09:54:37.618Z,1008.56
2017-11-10T09:55:38.040Z,1008.54
2017-11-10T09:56:38.466Z,1008.54
2017-11-10T09:57:38.888Z,1008.49
2017-11-10T09:58:39.315Z,1008.55
2017-11-10T09:59:39.747Z,1008.47
2017-11-10T10:00:40.169Z,1008.46
2017-11-10T10:01:40.592Z,1008.44
2017-11-10T10:02:41.017Z,1008.39
2017-11-10T10:03:41.451Z,1008.40
2017-11-10T10:04:41.869Z,1008.36
2017-11-10T10:05:42.305Z,1008.34
2017-11-10T10:06:42.721Z,1008.34
2017-11-10T10:07:43.145Z,1008.29
2017-11-10T10:08:43.569Z,1008.35
2017-11-10T10:09:43.993Z,1008.25
2017-11-10T10:10:44.425Z,1008.21
2017-11-10T10:11:44.844Z,1008.26
2017-11-10T10:12:45.271Z,1008.19
2017-11-10T10:13:45.699Z,1008.20
2017-11-10T10:14:46.123Z,1008.16
2017-11-10T10:15:46.544Z,1008.12
2017-11-10T10:16:46.969Z,1008.12
2017-11-10T10:17:47.409Z,1008.09
2017-11-10T10:18:47.824Z,1008.11
2017-11-10T10:19:48.245Z,1008.09
2017-11-10T10:20:48.672Z,1008.07
2017-11-10T10:21:49.096Z,1008.06
2017-11-10T10:22:49.534Z,1008.00
2017-11-10T10:23:49.945Z,1008.00
2017-11-10T10:24:50.377Z,1007.91
2017-11-10T10:25:50.801Z,1007.91
2017-11-10T10:26:51.239Z,1007.83
2017-11-10T10:27:51.644Z,1007.88
2017-11-10T10:28:52.074Z,1007.79
2017-11-10T10:29:52.499Z,1007.73
2017-11-10T10:30:52.930Z,1007.74
2017-11-10T10:31:53.349Z,1007.76
2017-11-10T10:32:53.772Z,1007.71
2017-11-10T10:33:54.203Z,1007.74
2017-11-10T10:34:54.624Z,1007.74
2017-11-10T10:35:55.048Z,1007.72
2017-11-10T10:36:55.473Z,1007.61
2017-11-10T10:37:55.912Z,1007.67
2017-11-10T10:38:56.324Z,1007.68
2017-11-10T10:39:56.748Z,1007.64
2017-11-10T10:40:57.173Z,1007.57
2017-11-10T10:41:57.606Z,1007.56
2017-11-10T10:42:58.026Z,1007.53
2017-11-10T10:43:58.451Z,1007.51
2017-11-10T10:44:58.877Z,1007.51
2017-11-10T10:45:59.302Z,1007.45
2017-11-10T10:46:59.727Z,1007.42
2017-11-10T10:48:00.151Z,1007.38
2017-11-10T10:49:00.582Z,1007.35
2017-11-10T10:50:01.003Z,1007.31
2017-11-10T10:51:01.431Z,1007.25
2017-11-10T10:52:01.853Z,1007.22
2017-11-10T10:53:02.280Z,1007.22
2017-11-10T10:54:02.705Z,1007.20
2017-11-10T10:55:03.135Z,1007.14
2017-11-10T10:56:03.556Z,1007.17
2017-11-10T10:57:03.985Z,1007.19
2017-11-10T10:58:04.409Z,1007.22
2017-11-10T10:59:04.836Z,1007.13
2017-11-10T11:00:05.265Z,1007.18
2017-11-10T11:01:05.687Z,1007.04
2017-11-10T11:02:06.113Z,1007.04
2017-11-10T11:03:06.548Z,1007.02
2017-11-10T11:04:06.964Z,1006.99
2017-11-10T11:05:07.390Z,1006.95
2017-11-10T11:06:07.820Z,1006.97
2017-11-10T11:07:08.255Z,1006.95
2017-11-10T11:08:08.669Z,1006.87
2017-11-10T11:09:09.092Z,1006.84
2017-11-10T11:10:09.521Z,1006.85
2017-11-10T11:11:09.954Z,1006.81
2017-11-10T11:12:10.373Z,1006.77
2017-11-10T11:13:10.801Z,1006.75
2017-11-10T11:14:11.234Z,1006.76
2017-11-10T11:15:11.649Z,1006.69
2017-11-10T11:16:12.073Z,1006.61
2017-11-10T11:17:12.501Z,1006.66
2017-11-10T11:18:12.930Z,1006.57
2017-11-10T11:19:13.436Z,1006.60
2017-11-10T11:20:13.807Z,1006.60
2017-11-10T11:21:14.243Z,1006.56
2017-11-10T11:22:14.663Z,1006.58
2017-11-10T11:23:15.108Z,1006.50
2017-11-10T11:24:15.510Z,1006.48
2017-11-10T11:25:15.943Z,1006.51
2017-11-10T11:26:16.405Z,1006.46
2017-11-10T11:27:16.802Z,1006.43
2017-11-10T11:28:17.270Z,1006.51
2017-11-10T11:29:17.673Z,1006.43
2017-11-10T11:30:18.065Z,1006.38
2017-11-10T11:31:18.559Z,1006.37
2017-11-10T11:32:18.937Z,1006.33
2017-11-10T11:33:19.383Z,1006.37
2017-11-10T11:34:19.782Z,1006.39
2017-11-10T11:35:20.206Z,1006.33
2017-11-10T11:36:20.599Z,1006.35
2017-11-10T11:37:21.034Z,1006.30
2017-11-10T11:38:21.511Z,1006.22
2017-11-10T11:39:21.989Z,1006.23
2017-11-10T11:40:22.351Z,1006.23
2017-11-10T11:41:22.781Z,1006.19
2017-11-10T11:42:23.225Z,1006.14
2017-11-10T11:43:23.729Z,1006.13
2017-11-10T11:44:24.052Z,1006.13
2017-11-10T11:45:24.485Z,1006.07
2017-11-10T11:46:24.934Z,1006.03
2017-11-10T11:47:25.371Z,1006.03
2017-11-10T11:48:25.775Z,1006.04
2017-11-10T11:49:26.203Z,1006.07
2017-11-10T11:50:26.572Z,1006.03
2017-11-10T11:51:27.050Z,1005.94
2017-11-10T11:52:27.448Z,1005.98
2017-11-10T11:53:27.865Z,1006.00
2017-11-10T11:54:28.388Z,1005.92
2017-11-10T11:55:28.717Z,1005.98
2017-11-10T11:56:29.147Z,1005.95
2017-11-10T11:57:29.578Z,1005.98
2017-11-10T11:58:29.998Z,1005.89
2017-11-10T11:59:30.417Z,1005.88
2017-11-10T12:00:30.904Z,1005.89
2017-11-10T12:01:31.390Z,1005.82
2017-11-10T12:02:31.744Z,1005.77
2017-11-10T12:03:32.169Z,1005.72
2017-11-10T12:04:32.546Z,1005.68
2017-11-10T12:05:32.998Z,1005.76
2017-11-10T12:06:33.436Z,1005.82
2017-11-10T12:07:33.912Z,1005.74
2017-11-10T12:08:34.325Z,1005.74
2017-11-10T12:09:34.684Z,1005.76
2017-11-10T12:10:35.104Z,1005.76